Pagrindinis puslapis
METAR-TAF:

METAR-TAF

Oro uostai :

Nordholz, Vokietija

platuma: 53-46N, ilguma: 008-40E, Aukštis: 23 m

Dabartinis oras

Ataskaita buvo paskelbta 1 valandą ir 11 minutes, ne 08:20 UTC
Vėjas 5 kt iš Vakarų/Pietvakarių
Temperatūra 13°C
Drėgmė 82%
Slėgis 1029 hPa
Matomumas 10 km arba daugiau
Su prošvaistėmis ne aukštis 2500 ft

METAR: ETMN 200820Z 25005KT 9999 BKN025 13/10 Q1029 BLU BLU TEMPO WHT

Laikas: 11:31 (09:31 UTC)

Prognozė

Ataskaita buvo paskelbta 2 valandos ir 31 minutes, ne 07:00 UTC
Prognozė galioja nuo 20 metu 08 UTC su 20 metu 17 UTC
Vėjas 8 kt iš Vakarų/Pietvakarių
Matomumas 10 km arba daugiau
Išsisklaidę debesys ne aukštis 2500 ft
Su prošvaistėmis ne aukštis 5000 ft
Laikinai
nuo 20 metu 08 UTC su 20 metu 17 UTC
Vėjas 12 kt iš Vakarų
Matomumas 10 km arba daugiau
Išsisklaidę debesys ne aukštis 1000 ft
Su prošvaistėmis ne aukštis 2000 ft

TAF: ETMN 200700Z 2008/2017 25008KT 9999 NSW SCT025 BKN050 TEMPO 2008/2017 28012KT 9999 NSW SCT010 BKN020

Orai ataskaitas ir orų prognozės (METAR, TAF).

turimą stotys yra geltonos ir raudonos taškus žemėlapyje.

Perkelti pele per norėdami pamatyti stoties vardą.

Tada spustelėkite, norėdami matyti oro stebėjimo ir prognozės.

Norėdami pakeisti žemėlapį: spustelėkite ant žalios mygtukų su juodo kryžiaus žemyn,; žalią mygtuką su brūkšneliu, jei norite nutolinti; arba žalių rodyklių gretimoms žemėlapius.


METAR-TAF: